Portada
METAR-TAF:

METAR-TAF

Aeroports :

Newberry, Carolina del Sud, Estats Units d'Amèrica

latitud: 34-18-34N, longitud: 081-38-26W, altitud: 174 m

Observació

L'informe es va fer fa 13 minuts, a les 12:55 UTC
Vent 4 kt del Sud/Sud-Oest
Temperatura 7°C
Humitat 100%
Pressió 1011 hPa
Visibilitat: 1.2 km
Cel cobert a una alçada de 300 ft
boirina

METAR: KEOE 191255Z AUTO 21004KT 3/4SM BR OVC003 07/07 A2986 RMK AO2

Hora: 08:08 (13:08 UTC)


TAF: manca

Observacions i pronòstics meteorològics de més de 4000 aeroports (METAR i TAF).

Les estacions disponibles són els punts grocs i vermells al mapa.

Posi el ratolí al punt desitjat per veure el nom de l'estació.

Feu clic per veure les observacions i els pronòstics meteorològics.

Per canviar el mapa: feu clic els botons verds amb una creu de color negre per apropar; al botó verd amb un guió per allunyar la imatge; o en les fletxes verdes per a mapes adjacents.


METAR-TAF: